createdAt,value
2023-02-11T00:00:35.241Z,102518.31
2023-02-11T00:03:04.543Z,102517.31
2023-02-11T00:05:32.255Z,102526.91
2023-02-11T00:07:59.933Z,102519.41
2023-02-11T00:10:27.616Z,102533.38
2023-02-11T00:12:55.360Z,102527.97
2023-02-11T00:15:23.134Z,102525.94
2023-02-11T00:17:50.882Z,102519.16
2023-02-11T00:20:20.696Z,102519.28
2023-02-11T00:22:48.428Z,102519.41
2023-02-11T00:25:16.110Z,102534.13
2023-02-11T00:27:43.820Z,102546.91
2023-02-11T00:30:12.260Z,102548.03
2023-02-11T00:32:39.991Z,102560.41
2023-02-11T00:35:08.686Z,102576.75
2023-02-11T00:37:37.750Z,102575.25
2023-02-11T00:40:06.902Z,102570.00
2023-02-11T00:42:35.626Z,102571.81
2023-02-11T00:45:03.597Z,102562.22
2023-02-11T00:47:31.360Z,102545.59
2023-02-11T00:50:00.920Z,102530.53
2023-02-11T00:52:29.887Z,102514.84
2023-02-11T00:54:58.989Z,102502.44
2023-02-11T00:57:26.740Z,102489.50
2023-02-11T00:59:54.390Z,102494.47
2023-02-11T01:02:22.132Z,102498.25
2023-02-11T01:04:50.051Z,102519.94
2023-02-11T01:07:17.828Z,102518.25
2023-02-11T01:09:45.499Z,102519.13
2023-02-11T01:12:14.583Z,102513.72
2023-02-11T01:14:42.432Z,102506.00
2023-02-11T01:17:10.178Z,102514.63
2023-02-11T01:19:38.133Z,102520.91
2023-02-11T01:22:06.123Z,102518.50
2023-02-11T01:24:34.105Z,102502.72
2023-02-11T01:27:01.792Z,102499.16
2023-02-11T01:29:30.931Z,102517.38
2023-02-11T01:31:58.725Z,102512.09
2023-02-11T01:34:26.413Z,102511.97
2023-02-11T01:36:58.400Z,102511.84
2023-02-11T01:39:26.096Z,102503.25
2023-02-11T01:41:53.773Z,102498.00
2023-02-11T01:44:30.694Z,102508.72
2023-02-11T01:46:58.789Z,102508.53
2023-02-11T01:49:28.948Z,102511.31
2023-02-11T01:52:00.457Z,102508.75
2023-02-11T01:54:49.310Z,102515.50
2023-02-11T01:57:25.905Z,102499.88
2023-02-11T02:00:00.918Z,102495.34
2023-02-11T02:02:34.343Z,102489.34
2023-02-11T02:05:06.517Z,102487.41
2023-02-11T02:07:38.259Z,102478.78
2023-02-11T02:10:09.416Z,102470.78
2023-02-11T02:12:37.144Z,102476.13
2023-02-11T02:15:24.498Z,102464.91
2023-02-11T02:17:58.881Z,102466.94
2023-02-11T02:20:45.998Z,102470.97
2023-02-11T02:23:30.180Z,102485.81
2023-02-11T02:26:21.049Z,102478.03
2023-02-11T02:29:18.860Z,102476.38
2023-02-11T02:31:56.005Z,102467.38
2023-02-11T02:34:30.631Z,102468.25
2023-02-11T02:37:03.751Z,102467.22
2023-02-11T02:39:33.947Z,102464.59
2023-02-11T02:42:02.175Z,102455.91
2023-02-11T02:44:30.336Z,102447.84
2023-02-11T02:46:58.188Z,102448.31
2023-02-11T02:49:27.288Z,102453.84
2023-02-11T02:52:09.180Z,102457.41
2023-02-11T02:54:58.427Z,102446.84
2023-02-11T02:57:32.074Z,102445.22
2023-02-11T03:00:14.110Z,102437.59
2023-02-11T03:02:50.081Z,102439.28
2023-02-11T03:05:23.673Z,102439.31
2023-02-11T03:07:56.078Z,102448.84
2023-02-11T03:10:28.111Z,102441.84
2023-02-11T03:12:56.672Z,102447.81
2023-02-11T03:15:26.120Z,102453.84
2023-02-11T03:17:55.751Z,102457.28
2023-02-11T03:20:24.986Z,102457.41
2023-02-11T03:22:57.109Z,102444.66
2023-02-11T03:25:30.216Z,102444.38
2023-02-11T03:28:02.334Z,102440.94
2023-02-11T03:30:33.696Z,102439.16
2023-02-11T03:33:04.676Z,102441.94
2023-02-11T03:35:37.166Z,102441.94
2023-02-11T03:38:07.220Z,102454.03
2023-02-11T03:40:37.991Z,102449.66
2023-02-11T03:43:09.517Z,102445.28
2023-02-11T03:45:37.924Z,102450.50
2023-02-11T03:48:08.364Z,102459.75
2023-02-11T03:50:38.368Z,102455.72
2023-02-11T03:53:06.564Z,102454.19
2023-02-11T03:55:37.324Z,102463.63
2023-02-11T03:58:05.082Z,102464.47
2023-02-11T04:00:33.040Z,102463.75
2023-02-11T04:03:00.857Z,102454.19
2023-02-11T04:05:28.593Z,102447.81
2023-02-11T04:07:57.661Z,102449.50
2023-02-11T04:10:25.712Z,102454.78
2023-02-11T04:12:53.408Z,102445.25
2023-02-11T04:15:21.194Z,102453.03
2023-02-11T04:17:48.859Z,102456.41
2023-02-11T04:20:16.645Z,102453.97
2023-02-11T04:22:44.306Z,102458.91
2023-02-11T04:25:13.369Z,102454.97
2023-02-11T04:27:41.082Z,102458.50
2023-02-11T04:30:11.883Z,102458.38
2023-02-11T04:32:39.648Z,102459.19
2023-02-11T04:35:08.149Z,102452.25
2023-02-11T04:37:36.704Z,102447.06
2023-02-11T04:40:05.050Z,102461.00
2023-02-11T04:42:34.100Z,102461.13
2023-02-11T04:45:01.923Z,102463.72
2023-02-11T04:47:29.628Z,102456.78
2023-02-11T04:49:57.326Z,102455.03
2023-02-11T04:52:25.000Z,102451.28
2023-02-11T04:54:52.698Z,102463.72
2023-02-11T04:57:20.339Z,102455.78
2023-02-11T04:59:49.419Z,102455.88
2023-02-11T05:02:17.094Z,102463.91
2023-02-11T05:04:44.860Z,102463.94
2023-02-11T05:07:12.640Z,102457.75
2023-02-11T05:09:40.496Z,102456.06
2023-02-11T05:12:08.480Z,102452.84
2023-02-11T05:14:36.177Z,102467.59
2023-02-11T05:17:05.299Z,102469.09
2023-02-11T05:19:33.184Z,102465.75
2023-02-11T05:22:03.454Z,102468.91
2023-02-11T05:24:31.552Z,102462.75
2023-02-11T05:26:59.308Z,102467.28
2023-02-11T05:29:27.050Z,102465.88
2023-02-11T05:31:54.793Z,102465.81
2023-02-11T05:34:23.844Z,102466.91
2023-02-11T05:36:51.517Z,102453.94
2023-02-11T05:39:19.261Z,102458.38
2023-02-11T05:41:46.935Z,102460.75
2023-02-11T05:44:14.624Z,102461.69
2023-02-11T05:46:42.417Z,102463.47
2023-02-11T05:49:10.198Z,102465.25
2023-02-11T05:51:39.305Z,102468.72
2023-02-11T05:54:07.161Z,102464.50
2023-02-11T05:56:34.904Z,102454.94
2023-02-11T05:59:02.644Z,102466.94
2023-02-11T06:01:30.532Z,102468.78
2023-02-11T06:03:58.317Z,102468.78
2023-02-11T06:06:26.035Z,102453.28
2023-02-11T06:08:56.384Z,102456.78
2023-02-11T06:11:24.261Z,102454.81
2023-02-11T06:13:52.146Z,102447.03
2023-02-11T06:16:19.878Z,102454.03
2023-02-11T06:18:47.565Z,102460.19
2023-02-11T06:21:15.326Z,102467.97
2023-02-11T06:23:43.509Z,102468.00
2023-02-11T06:26:18.909Z,102477.50
2023-02-11T06:28:46.833Z,102470.53
2023-02-11T06:31:14.878Z,102473.09
2023-02-11T06:33:42.740Z,102470.59
2023-02-11T06:36:17.046Z,102463.66
2023-02-11T06:38:45.163Z,102468.84
2023-02-11T06:41:15.584Z,102473.16
2023-02-11T06:43:43.630Z,102469.84
2023-02-11T06:46:11.394Z,102468.78
2023-02-11T06:48:39.262Z,102464.53
2023-02-11T06:51:09.422Z,102460.31
2023-02-11T06:53:38.225Z,102459.47
2023-02-11T06:56:07.031Z,102453.16
2023-02-11T06:58:36.627Z,102464.69
2023-02-11T07:01:07.486Z,102467.09
2023-02-11T07:03:36.358Z,102454.81
2023-02-11T07:06:05.509Z,102458.38
2023-02-11T07:08:34.259Z,102449.13
2023-02-11T07:11:02.268Z,102465.63
2023-02-11T07:13:30.008Z,102468.25
2023-02-11T07:15:59.176Z,102470.88
2023-02-11T07:18:26.927Z,102469.81
2023-02-11T07:20:54.594Z,102457.56
2023-02-11T07:23:22.306Z,102462.06
2023-02-11T07:25:50.300Z,102460.25
2023-02-11T07:28:18.333Z,102471.63
2023-02-11T07:30:46.113Z,102476.66
2023-02-11T07:33:15.143Z,102481.00
2023-02-11T07:35:42.881Z,102480.13
2023-02-11T07:38:10.630Z,102487.13
2023-02-11T07:40:38.295Z,102491.56
2023-02-11T07:43:06.035Z,102484.97
2023-02-11T07:45:33.745Z,102481.31
2023-02-11T07:48:01.556Z,102485.75
2023-02-11T07:50:30.657Z,102483.22
2023-02-11T07:52:58.287Z,102491.00
2023-02-11T07:55:26.006Z,102502.31
2023-02-11T07:57:53.732Z,102494.41
2023-02-11T08:00:21.750Z,102493.66
2023-02-11T08:02:49.403Z,102506.75
2023-02-11T08:05:17.325Z,102501.31
2023-02-11T08:07:46.365Z,102506.53
2023-02-11T08:10:14.048Z,102491.06
2023-02-11T08:12:42.162Z,102494.50
2023-02-11T08:15:10.591Z,102493.63
2023-02-11T08:17:38.646Z,102486.59
2023-02-11T08:20:07.327Z,102492.56
2023-02-11T08:22:35.804Z,102496.09
2023-02-11T08:25:05.232Z,102497.94
2023-02-11T08:27:33.010Z,102503.84
2023-02-11T08:30:01.816Z,102510.69
2023-02-11T08:32:29.510Z,102512.47
2023-02-11T08:34:57.184Z,102521.22
2023-02-11T08:37:24.885Z,102516.94
2023-02-11T08:39:52.628Z,102526.44
2023-02-11T08:42:21.739Z,102524.75
2023-02-11T08:44:49.424Z,102521.25
2023-02-11T08:47:17.143Z,102527.31
2023-02-11T08:49:44.858Z,102528.81
2023-02-11T08:52:12.860Z,102527.78
2023-02-11T08:54:40.534Z,102532.16
2023-02-11T08:57:08.250Z,102538.91
2023-02-11T08:59:38.044Z,102535.56
2023-02-11T09:02:05.791Z,102537.13
2023-02-11T09:04:33.508Z,102537.22
2023-02-11T09:07:01.222Z,102547.56
2023-02-11T09:09:28.954Z,102543.09
2023-02-11T09:11:57.431Z,102554.75
2023-02-11T09:14:25.701Z,102559.03
2023-02-11T09:16:55.148Z,102559.84
2023-02-11T09:19:24.086Z,102572.03
2023-02-11T09:21:51.828Z,102574.59
2023-02-11T09:24:19.647Z,102584.19
2023-02-11T09:26:47.377Z,102590.34
2023-02-11T09:29:15.080Z,102585.88
2023-02-11T09:31:42.946Z,102580.09
2023-02-11T09:34:13.242Z,102592.16
2023-02-11T09:36:41.569Z,102604.06
2023-02-11T09:39:12.790Z,102585.91
2023-02-11T09:41:47.981Z,102602.16
2023-02-11T09:44:20.732Z,102594.56
2023-02-11T09:46:53.782Z,102606.53
2023-02-11T09:49:24.718Z,102613.44
2023-02-11T09:51:55.119Z,102618.50
2023-02-11T09:54:28.336Z,102623.44
2023-02-11T09:56:55.973Z,102617.56
2023-02-11T09:59:23.865Z,102620.16
2023-02-11T10:01:55.127Z,102619.19
2023-02-11T10:04:34.843Z,102625.09
2023-02-11T10:07:09.063Z,102631.25
2023-02-11T10:09:45.397Z,102639.72
2023-02-11T10:12:23.200Z,102643.19
2023-02-11T10:15:04.843Z,102649.09
2023-02-11T10:17:39.711Z,102657.66
2023-02-11T10:20:18.631Z,102668.25
2023-02-11T10:22:49.332Z,102657.59
2023-02-11T10:25:21.341Z,102658.09
2023-02-11T10:27:49.614Z,102651.31
2023-02-11T10:30:23.143Z,102652.94
2023-02-11T10:32:53.538Z,102645.25
2023-02-11T10:35:24.165Z,102656.41
2023-02-11T10:37:51.936Z,102650.00
2023-02-11T10:40:21.439Z,102643.97
2023-02-11T10:42:53.556Z,102654.97
2023-02-11T10:45:27.291Z,102663.66
2023-02-11T10:47:56.107Z,102657.63
2023-02-11T10:50:27.427Z,102662.63
2023-02-11T10:53:02.480Z,102665.16
2023-02-11T10:55:30.149Z,102666.53
2023-02-11T10:57:59.839Z,102661.03
2023-02-11T11:00:36.760Z,102672.50
2023-02-11T11:03:06.172Z,102676.41
2023-02-11T11:05:38.667Z,102684.63
2023-02-11T11:08:08.540Z,102675.06
2023-02-11T11:10:43.486Z,102672.44
2023-02-11T11:13:28.645Z,102663.91
2023-02-11T11:16:23.226Z,102674.09
2023-02-11T11:18:53.331Z,102670.25
2023-02-11T11:21:24.508Z,102669.31
2023-02-11T11:23:57.668Z,102665.34
2023-02-11T11:26:27.089Z,102671.16
2023-02-11T11:28:58.649Z,102670.72
2023-02-11T11:31:29.278Z,102673.13
2023-02-11T11:33:59.383Z,102673.66
2023-02-11T11:36:36.270Z,102672.81
2023-02-11T11:39:13.635Z,102669.06
2023-02-11T11:41:51.260Z,102656.63
2023-02-11T11:44:25.486Z,102662.84
2023-02-11T11:47:06.302Z,102664.38
2023-02-11T11:49:36.871Z,102668.22
2023-02-11T11:52:13.038Z,102667.09
2023-02-11T11:54:43.008Z,102646.56
2023-02-11T11:57:14.048Z,102650.28
2023-02-11T11:59:41.817Z,102648.66
2023-02-11T12:02:24.825Z,102665.66
2023-02-11T12:05:01.538Z,102670.56
2023-02-11T12:07:41.045Z,102670.44
2023-02-11T12:10:26.727Z,102673.63
2023-02-11T12:12:57.401Z,102667.16
2023-02-11T12:15:32.741Z,102673.09
2023-02-11T12:18:10.455Z,102658.94
2023-02-11T12:20:49.694Z,102663.09
2023-02-11T12:23:33.818Z,102653.03
2023-02-11T12:26:08.929Z,102653.69
2023-02-11T12:28:41.915Z,102655.59
2023-02-11T12:31:23.787Z,102656.84
2023-02-11T12:34:11.186Z,102664.50
2023-02-11T12:36:54.245Z,102664.09
2023-02-11T12:39:34.608Z,102663.16
2023-02-11T12:42:34.306Z,102681.03
2023-02-11T12:45:14.891Z,102672.75
2023-02-11T12:47:53.995Z,102674.91
2023-02-11T12:50:25.989Z,102659.88
2023-02-11T12:53:13.134Z,102655.47
2023-02-11T12:55:45.439Z,102662.53
2023-02-11T12:58:17.459Z,102663.91
2023-02-11T13:00:49.591Z,102663.72
2023-02-11T13:03:21.815Z,102660.28
2023-02-11T13:05:53.244Z,102659.75
2023-02-11T13:08:26.037Z,102662.81
2023-02-11T13:10:57.267Z,102662.38
2023-02-11T13:13:28.817Z,102656.41
2023-02-11T13:16:02.106Z,102652.94
2023-02-11T13:18:49.360Z,102658.69
2023-02-11T13:21:37.664Z,102655.72
2023-02-11T13:24:18.487Z,102654.69
2023-02-11T13:26:52.441Z,102655.03
2023-02-11T13:29:28.827Z,102670.56
2023-02-11T13:31:57.366Z,102669.19
2023-02-11T13:34:26.612Z,102664.03
2023-02-11T13:36:57.798Z,102661.91
2023-02-11T13:39:25.787Z,102657.31
2023-02-11T13:42:03.512Z,102664.94
2023-02-11T13:44:34.531Z,102654.06
2023-02-11T13:47:04.644Z,102656.41
2023-02-11T13:49:36.377Z,102655.78
2023-02-11T13:52:06.639Z,102652.88
2023-02-11T13:54:38.301Z,102661.91
2023-02-11T13:57:31.899Z,102655.47
2023-02-11T14:00:01.230Z,102659.75
2023-02-11T14:02:50.369Z,102666.75
2023-02-11T14:05:47.371Z,102667.66
2023-02-11T14:08:41.440Z,102662.97
2023-02-11T14:11:47.042Z,102662.50
2023-02-11T14:14:24.461Z,102662.53
2023-02-11T14:17:30.881Z,102651.91
2023-02-11T14:19:59.168Z,102656.00
2023-02-11T14:22:29.568Z,102658.69
2023-02-11T14:24:59.646Z,102667.25
2023-02-11T14:27:39.440Z,102662.31
2023-02-11T14:30:31.511Z,102656.31
2023-02-11T14:33:29.473Z,102667.50
2023-02-11T14:36:04.530Z,102676.03
2023-02-11T14:38:41.524Z,102669.44
2023-02-11T14:41:12.983Z,102669.31
2023-02-11T14:43:41.929Z,102670.44
2023-02-11T14:46:11.312Z,102670.47
2023-02-11T14:48:40.505Z,102670.34
2023-02-11T14:51:09.666Z,102670.28
2023-02-11T14:53:38.239Z,102671.97
2023-02-11T14:56:18.470Z,102670.59
2023-02-11T14:58:48.413Z,102674.00
2023-02-11T15:01:30.375Z,102669.72
2023-02-11T15:04:00.571Z,102670.88
2023-02-11T15:06:31.391Z,102664.66
2023-02-11T15:09:01.939Z,102680.19
2023-02-11T15:11:32.858Z,102687.06
2023-02-11T15:14:07.528Z,102689.81
2023-02-11T15:16:41.960Z,102685.25
2023-02-11T15:19:21.054Z,102678.75
2023-02-11T15:21:48.820Z,102674.59
2023-02-11T15:24:25.381Z,102685.22
2023-02-11T15:27:00.659Z,102682.56
2023-02-11T15:29:29.427Z,102683.50
2023-02-11T15:32:17.170Z,102683.53
2023-02-11T15:34:45.758Z,102690.44
2023-02-11T15:37:15.377Z,102683.53
2023-02-11T15:39:43.685Z,102695.78
2023-02-11T15:42:25.617Z,102699.16
2023-02-11T15:45:12.804Z,102698.63
2023-02-11T15:47:44.004Z,102697.69
2023-02-11T15:50:23.350Z,102696.03
2023-02-11T15:52:52.072Z,102689.06
2023-02-11T15:55:20.325Z,102685.56
2023-02-11T15:57:52.348Z,102685.84
2023-02-11T16:00:22.218Z,102685.97
2023-02-11T16:02:51.920Z,102687.88
2023-02-11T16:05:28.087Z,102690.50
2023-02-11T16:07:56.848Z,102700.91
2023-02-11T16:10:28.051Z,102697.50
2023-02-11T16:13:00.526Z,102708.84
2023-02-11T16:15:43.256Z,102718.38
2023-02-11T16:18:36.759Z,102715.91
2023-02-11T16:21:06.713Z,102724.53
2023-02-11T16:23:36.020Z,102724.56
2023-02-11T16:26:08.492Z,102723.00
2023-02-11T16:28:37.332Z,102727.38
2023-02-11T16:31:05.441Z,102736.16
2023-02-11T16:33:34.609Z,102743.22
2023-02-11T16:36:02.348Z,102751.81
2023-02-11T16:38:31.407Z,102752.84
2023-02-11T16:40:59.085Z,102753.78
2023-02-11T16:43:26.727Z,102763.50
2023-02-11T16:45:54.426Z,102755.53
2023-02-11T16:48:22.175Z,102748.66
2023-02-11T16:50:53.555Z,102742.34
2023-02-11T16:53:23.864Z,102753.75
2023-02-11T16:55:51.880Z,102751.09
2023-02-11T16:58:19.916Z,102748.88
2023-02-11T17:00:48.691Z,102758.44
2023-02-11T17:03:19.409Z,102759.28
2023-02-11T17:05:55.476Z,102769.75
2023-02-11T17:08:24.968Z,102769.97
2023-02-11T17:10:53.007Z,102778.53
2023-02-11T17:13:20.925Z,102774.09
2023-02-11T17:15:48.610Z,102772.63
2023-02-11T17:18:16.378Z,102769.91
2023-02-11T17:20:44.081Z,102772.53
2023-02-11T17:23:11.722Z,102776.09
2023-02-11T17:25:41.030Z,102777.94
2023-02-11T17:28:09.716Z,102775.44
2023-02-11T17:30:37.513Z,102781.41
2023-02-11T17:33:05.248Z,102784.91
2023-02-11T17:35:32.915Z,102781.53
2023-02-11T17:38:01.429Z,102782.47
2023-02-11T17:40:29.118Z,102787.69
2023-02-11T17:42:58.144Z,102785.06
2023-02-11T17:45:25.876Z,102789.44
2023-02-11T17:47:53.620Z,102787.56
2023-02-11T17:50:21.524Z,102799.13
2023-02-11T17:52:49.246Z,102791.19
2023-02-11T17:55:17.038Z,102800.66
2023-02-11T17:57:44.752Z,102805.97
2023-02-11T18:00:15.195Z,102808.50
2023-02-11T18:02:42.943Z,102805.03
2023-02-11T18:05:11.162Z,102805.13
2023-02-11T18:07:38.871Z,102810.41
2023-02-11T18:10:07.726Z,102811.25
2023-02-11T18:12:35.458Z,102805.22
2023-02-11T18:15:03.360Z,102811.41
2023-02-11T18:17:32.475Z,102811.53
2023-02-11T18:20:00.279Z,102809.06
2023-02-11T18:22:28.221Z,102816.06
2023-02-11T18:24:56.040Z,102819.59
2023-02-11T18:27:23.826Z,102817.75
2023-02-11T18:29:51.724Z,102816.13
2023-02-11T18:32:19.412Z,102817.88
2023-02-11T18:34:48.767Z,102823.94
2023-02-11T18:37:17.027Z,102830.88
2023-02-11T18:39:45.537Z,102817.97
2023-02-11T18:42:13.203Z,102825.78
2023-02-11T18:44:41.006Z,102820.59
2023-02-11T18:47:08.656Z,102829.22
2023-02-11T18:49:36.705Z,102830.94
2023-02-11T18:52:06.199Z,102831.03
2023-02-11T18:54:33.909Z,102830.22
2023-02-11T18:57:01.680Z,102831.03
2023-02-11T18:59:29.826Z,102839.78
2023-02-11T19:01:57.592Z,102844.19
2023-02-11T19:04:25.338Z,102847.63
2023-02-11T19:06:52.991Z,102868.66
2023-02-11T19:09:22.254Z,102864.34
2023-02-11T19:11:50.719Z,102879.97
2023-02-11T19:14:21.703Z,102877.22
2023-02-11T19:16:51.264Z,102870.50
2023-02-11T19:19:20.241Z,102880.94
2023-02-11T19:21:48.806Z,102885.28
2023-02-11T19:24:18.993Z,102892.03
2023-02-11T19:26:48.674Z,102900.91
2023-02-11T19:29:16.485Z,102903.50
2023-02-11T19:31:44.784Z,102906.97
2023-02-11T19:34:14.422Z,102903.59
2023-02-11T19:36:42.501Z,102914.03
2023-02-11T19:39:10.371Z,102914.06
2023-02-11T19:41:38.223Z,102914.16
2023-02-11T19:44:08.151Z,102908.91
2023-02-11T19:46:37.575Z,102917.72
2023-02-11T19:49:06.160Z,102915.09
2023-02-11T19:51:35.677Z,102920.31
2023-02-11T19:54:03.378Z,102925.56
2023-02-11T19:56:31.099Z,102930.63
2023-02-11T19:58:58.916Z,102943.63
2023-02-11T20:01:28.067Z,102947.19
2023-02-11T20:03:57.302Z,102946.22
2023-02-11T20:06:26.294Z,102955.75
2023-02-11T20:08:58.213Z,102967.13
2023-02-11T20:11:27.001Z,102961.09
2023-02-11T20:13:54.916Z,102960.22
2023-02-11T20:16:33.961Z,102954.25
2023-02-11T20:19:17.487Z,102942.94
2023-02-11T20:21:47.103Z,102940.41
2023-02-11T20:24:15.520Z,102930.00
2023-02-11T20:26:43.319Z,102933.53
2023-02-11T20:29:10.998Z,102933.50
2023-02-11T20:31:38.831Z,102940.53
2023-02-11T20:34:06.635Z,102954.50
2023-02-11T20:36:38.070Z,102960.50
2023-02-11T20:39:07.355Z,102962.13
2023-02-11T20:41:36.233Z,102959.53
2023-02-11T20:44:06.005Z,102960.41
2023-02-11T20:46:35.047Z,102971.69
2023-02-11T20:49:03.284Z,102962.69
2023-02-11T20:51:32.980Z,102964.28
2023-02-11T20:54:02.447Z,102959.28
2023-02-11T20:56:31.805Z,102962.84
2023-02-11T20:59:00.574Z,102964.63
2023-02-11T21:01:30.466Z,102964.50
2023-02-11T21:03:59.913Z,102964.53
2023-02-11T21:06:31.401Z,102967.06
2023-02-11T21:08:59.106Z,102968.00
2023-02-11T21:11:28.170Z,102960.94
2023-02-11T21:13:55.820Z,102967.97
2023-02-11T21:16:23.668Z,102956.63
2023-02-11T21:18:52.240Z,102962.72
2023-02-11T21:21:20.777Z,102956.56
2023-02-11T21:23:48.696Z,102957.56
2023-02-11T21:26:16.996Z,102958.38
2023-02-11T21:28:46.052Z,102958.31
2023-02-11T21:31:20.195Z,102954.78
2023-02-11T21:33:48.165Z,102960.91
2023-02-11T21:36:15.886Z,102959.00
2023-02-11T21:38:43.534Z,102960.06
2023-02-11T21:41:11.260Z,102964.38
2023-02-11T21:43:39.250Z,102965.09
2023-02-11T21:46:11.142Z,102960.66
2023-02-11T21:48:39.145Z,102960.72
2023-02-11T21:51:08.414Z,102953.88
2023-02-11T21:53:36.565Z,102967.75
2023-02-11T21:56:06.240Z,102968.78
2023-02-11T21:58:34.010Z,102970.66
2023-02-11T22:01:01.774Z,102981.06
2023-02-11T22:03:30.866Z,102986.22
2023-02-11T22:05:58.568Z,102981.97
2023-02-11T22:08:26.315Z,102986.31
2023-02-11T22:10:53.955Z,102987.13
2023-02-11T22:13:21.667Z,103001.06
2023-02-11T22:15:58.847Z,102999.31
2023-02-11T22:18:26.705Z,103004.38
2023-02-11T22:21:02.898Z,103006.94
2023-02-11T22:23:30.960Z,103002.84
2023-02-11T22:25:59.379Z,103003.72
2023-02-11T22:28:27.193Z,103005.44
2023-02-11T22:30:55.888Z,103003.75
2023-02-11T22:33:23.858Z,103007.22
2023-02-11T22:35:59.070Z,103015.78
2023-02-11T22:38:28.710Z,103020.22
2023-02-11T22:40:56.785Z,103018.63
2023-02-11T22:43:24.509Z,103017.84
2023-02-11T22:45:52.422Z,103013.56
2023-02-11T22:48:23.003Z,103018.72
2023-02-11T22:50:50.827Z,103017.91
2023-02-11T22:53:18.576Z,103014.41
2023-02-11T22:55:47.653Z,103019.75
2023-02-11T22:58:15.404Z,103016.19
2023-02-11T23:00:43.545Z,103026.69
2023-02-11T23:03:11.833Z,103023.22
2023-02-11T23:05:40.333Z,103032.88
2023-02-11T23:08:08.812Z,103030.19
2023-02-11T23:10:37.041Z,103029.28
2023-02-11T23:13:07.251Z,103027.78
2023-02-11T23:15:35.032Z,103032.13
2023-02-11T23:18:02.744Z,103038.16
2023-02-11T23:20:30.824Z,103037.22
2023-02-11T23:22:58.528Z,103046.81
2023-02-11T23:25:26.258Z,103056.53
2023-02-11T23:27:53.936Z,103058.44
2023-02-11T23:30:23.307Z,103056.66
2023-02-11T23:32:51.572Z,103052.31
2023-02-11T23:35:23.161Z,103046.25
2023-02-11T23:37:51.627Z,103055.91
2023-02-11T23:40:19.642Z,103049.84
2023-02-11T23:42:49.020Z,103050.66
2023-02-11T23:45:17.253Z,103052.44
2023-02-11T23:47:47.620Z,103048.16
2023-02-11T23:50:15.490Z,103048.94
2023-02-11T23:52:43.229Z,103058.50
2023-02-11T23:55:11.031Z,103056.84
2023-02-11T23:57:38.753Z,103053.22
